sensor_id;sensor_type;location;lat;lon;timestamp;P1;durP1;ratioP1;P2;durP2;ratioP2
6937;SDS011;40040;42.706;23.372;2024-03-06T00:02:14;31.23;;;15.90;;
6937;SDS011;40040;42.706;23.372;2024-03-06T00:04:41;33.43;;;16.63;;
6937;SDS011;40040;42.706;23.372;2024-03-06T00:07:08;30.67;;;16.00;;
6937;SDS011;40040;42.706;23.372;2024-03-06T00:09:34;30.00;;;14.97;;
6937;SDS011;40040;42.706;23.372;2024-03-06T00:12:02;29.77;;;15.30;;
6937;SDS011;40040;42.706;23.372;2024-03-06T00:14:30;31.73;;;14.60;;
6937;SDS011;40040;42.706;23.372;2024-03-06T00:16:57;24.87;;;12.83;;
6937;SDS011;40040;42.706;23.372;2024-03-06T00:19:24;25.23;;;12.27;;
6937;SDS011;40040;42.706;23.372;2024-03-06T00:21:51;21.53;;;11.30;;
6937;SDS011;40040;42.706;23.372;2024-03-06T00:24:18;22.07;;;10.97;;
6937;SDS011;40040;42.706;23.372;2024-03-06T00:26:45;18.70;;;11.20;;
6937;SDS011;40040;42.706;23.372;2024-03-06T00:29:12;20.07;;;11.07;;
6937;SDS011;40040;42.706;23.372;2024-03-06T00:31:43;19.87;;;11.43;;
6937;SDS011;40040;42.706;23.372;2024-03-06T00:34:12;21.07;;;11.27;;
6937;SDS011;40040;42.706;23.372;2024-03-06T00:36:42;20.93;;;11.30;;
6937;SDS011;40040;42.706;23.372;2024-03-06T00:39:09;23.93;;;11.97;;
6937;SDS011;40040;42.706;23.372;2024-03-06T00:41:36;20.33;;;12.00;;
6937;SDS011;40040;42.706;23.372;2024-03-06T00:44:03;22.77;;;11.97;;
6937;SDS011;40040;42.706;23.372;2024-03-06T00:46:30;25.93;;;12.70;;
6937;SDS011;40040;42.706;23.372;2024-03-06T00:48:59;23.77;;;13.93;;
6937;SDS011;40040;42.706;23.372;2024-03-06T00:51:25;26.77;;;13.50;;
6937;SDS011;40040;42.706;23.372;2024-03-06T00:53:52;25.97;;;13.53;;
6937;SDS011;40040;42.706;23.372;2024-03-06T00:56:19;19.90;;;11.63;;
6937;SDS011;40040;42.706;23.372;2024-03-06T00:58:45;21.10;;;12.03;;
6937;SDS011;40040;42.706;23.372;2024-03-06T01:01:12;18.47;;;10.67;;
6937;SDS011;40040;42.706;23.372;2024-03-06T01:03:39;21.43;;;11.47;;
6937;SDS011;40040;42.706;23.372;2024-03-06T01:06:07;25.50;;;11.73;;
6937;SDS011;40040;42.706;23.372;2024-03-06T01:08:34;23.87;;;11.93;;
6937;SDS011;40040;42.706;23.372;2024-03-06T01:11:01;24.03;;;12.30;;
6937;SDS011;40040;42.706;23.372;2024-03-06T01:13:29;29.63;;;12.60;;
6937;SDS011;40040;42.706;23.372;2024-03-06T01:15:56;26.70;;;13.20;;
6937;SDS011;40040;42.706;23.372;2024-03-06T01:18:23;35.80;;;16.50;;
6937;SDS011;40040;42.706;23.372;2024-03-06T01:20:50;23.10;;;13.27;;
6937;SDS011;40040;42.706;23.372;2024-03-06T01:23:18;40.50;;;17.40;;
6937;SDS011;40040;42.706;23.372;2024-03-06T01:25:45;25.20;;;13.13;;
6937;SDS011;40040;42.706;23.372;2024-03-06T01:28:12;24.20;;;12.23;;
6937;SDS011;40040;42.706;23.372;2024-03-06T01:30:39;25.77;;;12.70;;
6937;SDS011;40040;42.706;23.372;2024-03-06T01:33:06;22.67;;;12.63;;
6937;SDS011;40040;42.706;23.372;2024-03-06T01:35:33;26.10;;;13.60;;
6937;SDS011;40040;42.706;23.372;2024-03-06T01:37:59;24.60;;;11.97;;
6937;SDS011;40040;42.706;23.372;2024-03-06T01:40:28;24.57;;;11.70;;
6937;SDS011;40040;42.706;23.372;2024-03-06T01:42:55;22.30;;;11.63;;
6937;SDS011;40040;42.706;23.372;2024-03-06T01:45:22;23.43;;;12.13;;
6937;SDS011;40040;42.706;23.372;2024-03-06T01:47:48;24.50;;;12.47;;
6937;SDS011;40040;42.706;23.372;2024-03-06T01:50:16;29.70;;;15.33;;
6937;SDS011;40040;42.706;23.372;2024-03-06T01:52:43;26.97;;;13.87;;
6937;SDS011;40040;42.706;23.372;2024-03-06T01:55:11;35.30;;;15.73;;
6937;SDS011;40040;42.706;23.372;2024-03-06T01:57:40;32.73;;;16.00;;
6937;SDS011;40040;42.706;23.372;2024-03-06T02:00:08;27.47;;;14.10;;
6937;SDS011;40040;42.706;23.372;2024-03-06T02:02:39;25.90;;;14.43;;
6937;SDS011;40040;42.706;23.372;2024-03-06T02:05:08;27.10;;;14.17;;
6937;SDS011;40040;42.706;23.372;2024-03-06T02:07:35;26.33;;;14.77;;
6937;SDS011;40040;42.706;23.372;2024-03-06T02:10:05;27.07;;;14.10;;
6937;SDS011;40040;42.706;23.372;2024-03-06T02:12:35;28.53;;;14.70;;
6937;SDS011;40040;42.706;23.372;2024-03-06T02:15:03;31.57;;;14.97;;
6937;SDS011;40040;42.706;23.372;2024-03-06T02:17:31;30.40;;;14.60;;
6937;SDS011;40040;42.706;23.372;2024-03-06T02:19:59;27.93;;;14.20;;
6937;SDS011;40040;42.706;23.372;2024-03-06T02:22:32;30.00;;;14.47;;
6937;SDS011;40040;42.706;23.372;2024-03-06T02:24:59;27.40;;;13.70;;
6937;SDS011;40040;42.706;23.372;2024-03-06T02:27:25;31.23;;;14.17;;
6937;SDS011;40040;42.706;23.372;2024-03-06T02:29:52;30.77;;;14.13;;
6937;SDS011;40040;42.706;23.372;2024-03-06T02:32:19;26.63;;;13.70;;
6937;SDS011;40040;42.706;23.372;2024-03-06T02:34:46;25.57;;;14.97;;
6937;SDS011;40040;42.706;23.372;2024-03-06T02:37:13;42.07;;;19.80;;
6937;SDS011;40040;42.706;23.372;2024-03-06T02:39:41;32.17;;;14.93;;
6937;SDS011;40040;42.706;23.372;2024-03-06T02:42:08;33.40;;;15.07;;
6937;SDS011;40040;42.706;23.372;2024-03-06T02:44:35;43.30;;;21.30;;
6937;SDS011;40040;42.706;23.372;2024-03-06T02:47:02;36.83;;;18.73;;
6937;SDS011;40040;42.706;23.372;2024-03-06T02:49:29;31.37;;;15.40;;
6937;SDS011;40040;42.706;23.372;2024-03-06T02:51:56;26.60;;;14.97;;
6937;SDS011;40040;42.706;23.372;2024-03-06T02:54:26;30.00;;;15.13;;
6937;SDS011;40040;42.706;23.372;2024-03-06T02:56:54;28.43;;;14.10;;
6937;SDS011;40040;42.706;23.372;2024-03-06T02:59:20;30.20;;;13.73;;
6937;SDS011;40040;42.706;23.372;2024-03-06T03:01:47;25.80;;;12.77;;
6937;SDS011;40040;42.706;23.372;2024-03-06T03:04:14;24.53;;;12.67;;
6937;SDS011;40040;42.706;23.372;2024-03-06T03:06:41;26.47;;;13.10;;
6937;SDS011;40040;42.706;23.372;2024-03-06T03:09:08;25.90;;;14.47;;
6937;SDS011;40040;42.706;23.372;2024-03-06T03:11:37;26.37;;;13.87;;
6937;SDS011;40040;42.706;23.372;2024-03-06T03:14:05;25.17;;;13.57;;
6937;SDS011;40040;42.706;23.372;2024-03-06T03:16:31;24.30;;;13.17;;
6937;SDS011;40040;42.706;23.372;2024-03-06T03:18:58;25.70;;;13.33;;
6937;SDS011;40040;42.706;23.372;2024-03-06T03:21:25;25.03;;;13.73;;
6937;SDS011;40040;42.706;23.372;2024-03-06T03:23:52;27.37;;;13.13;;
6937;SDS011;40040;42.706;23.372;2024-03-06T03:26:18;23.57;;;12.47;;
6937;SDS011;40040;42.706;23.372;2024-03-06T03:28:45;25.80;;;12.63;;
6937;SDS011;40040;42.706;23.372;2024-03-06T03:31:14;26.57;;;12.77;;
6937;SDS011;40040;42.706;23.372;2024-03-06T03:33:40;22.27;;;12.33;;
6937;SDS011;40040;42.706;23.372;2024-03-06T03:36:08;23.17;;;12.00;;
6937;SDS011;40040;42.706;23.372;2024-03-06T03:38:35;26.13;;;12.77;;
6937;SDS011;40040;42.706;23.372;2024-03-06T03:41:06;21.23;;;11.97;;
6937;SDS011;40040;42.706;23.372;2024-03-06T03:43:33;23.73;;;11.80;;
6937;SDS011;40040;42.706;23.372;2024-03-06T03:46:00;22.97;;;11.80;;
6937;SDS011;40040;42.706;23.372;2024-03-06T03:48:28;23.53;;;11.90;;
6937;SDS011;40040;42.706;23.372;2024-03-06T03:50:55;19.67;;;11.37;;
6937;SDS011;40040;42.706;23.372;2024-03-06T03:53:22;25.77;;;11.57;;
6937;SDS011;40040;42.706;23.372;2024-03-06T03:55:48;19.83;;;11.10;;
6937;SDS011;40040;42.706;23.372;2024-03-06T03:58:15;21.33;;;10.90;;
6937;SDS011;40040;42.706;23.372;2024-03-06T04:00:42;23.07;;;11.43;;
6937;SDS011;40040;42.706;23.372;2024-03-06T04:03:09;25.97;;;11.97;;
6937;SDS011;40040;42.706;23.372;2024-03-06T04:05:37;28.53;;;13.33;;
6937;SDS011;40040;42.706;23.372;2024-03-06T04:08:04;24.20;;;12.80;;
6937;SDS011;40040;42.706;23.372;2024-03-06T04:10:31;22.37;;;11.53;;
6937;SDS011;40040;42.706;23.372;2024-03-06T04:12:59;21.47;;;12.13;;
6937;SDS011;40040;42.706;23.372;2024-03-06T04:15:26;23.10;;;11.10;;
6937;SDS011;40040;42.706;23.372;2024-03-06T04:17:53;22.23;;;10.57;;
6937;SDS011;40040;42.706;23.372;2024-03-06T04:20:20;21.80;;;10.20;;
6937;SDS011;40040;42.706;23.372;2024-03-06T04:22:48;21.40;;;11.07;;
6937;SDS011;40040;42.706;23.372;2024-03-06T04:25:16;23.23;;;10.97;;
6937;SDS011;40040;42.706;23.372;2024-03-06T04:27:43;24.23;;;10.83;;
6937;SDS011;40040;42.706;23.372;2024-03-06T04:30:10;22.00;;;11.00;;
6937;SDS011;40040;42.706;23.372;2024-03-06T04:32:38;21.57;;;11.10;;
6937;SDS011;40040;42.706;23.372;2024-03-06T04:35:05;21.07;;;10.80;;
6937;SDS011;40040;42.706;23.372;2024-03-06T04:37:32;18.47;;;10.27;;
6937;SDS011;40040;42.706;23.372;2024-03-06T04:40:01;24.13;;;11.77;;
6937;SDS011;40040;42.706;23.372;2024-03-06T04:42:33;23.03;;;10.53;;
6937;SDS011;40040;42.706;23.372;2024-03-06T04:45:01;21.63;;;10.90;;
6937;SDS011;40040;42.706;23.372;2024-03-06T04:47:28;24.53;;;10.70;;
6937;SDS011;40040;42.706;23.372;2024-03-06T04:49:55;24.97;;;11.47;;
6937;SDS011;40040;42.706;23.372;2024-03-06T04:52:23;25.20;;;11.90;;
6937;SDS011;40040;42.706;23.372;2024-03-06T04:54:49;28.70;;;11.77;;
6937;SDS011;40040;42.706;23.372;2024-03-06T04:57:17;34.23;;;15.90;;
6937;SDS011;40040;42.706;23.372;2024-03-06T04:59:48;41.97;;;19.43;;
6937;SDS011;40040;42.706;23.372;2024-03-06T05:02:14;32.47;;;16.93;;
6937;SDS011;40040;42.706;23.372;2024-03-06T05:04:41;35.00;;;16.80;;
6937;SDS011;40040;42.706;23.372;2024-03-06T05:07:08;34.27;;;16.73;;
6937;SDS011;40040;42.706;23.372;2024-03-06T05:09:35;33.93;;;16.93;;
6937;SDS011;40040;42.706;23.372;2024-03-06T05:12:02;32.80;;;16.73;;
6937;SDS011;40040;42.706;23.372;2024-03-06T05:14:32;37.43;;;17.57;;
6937;SDS011;40040;42.706;23.372;2024-03-06T05:16:58;38.60;;;17.70;;
6937;SDS011;40040;42.706;23.372;2024-03-06T05:19:25;42.60;;;18.30;;
6937;SDS011;40040;42.706;23.372;2024-03-06T05:21:57;38.30;;;17.97;;
6937;SDS011;40040;42.706;23.372;2024-03-06T05:24:23;51.90;;;23.17;;
6937;SDS011;40040;42.706;23.372;2024-03-06T05:26:50;35.80;;;16.70;;
6937;SDS011;40040;42.706;23.372;2024-03-06T05:29:17;36.90;;;15.60;;
6937;SDS011;40040;42.706;23.372;2024-03-06T05:31:45;37.00;;;16.00;;
6937;SDS011;40040;42.706;23.372;2024-03-06T05:34:12;33.60;;;16.20;;
6937;SDS011;40040;42.706;23.372;2024-03-06T05:36:38;35.27;;;16.57;;
6937;SDS011;40040;42.706;23.372;2024-03-06T05:39:05;36.10;;;16.67;;
6937;SDS011;40040;42.706;23.372;2024-03-06T05:41:38;36.37;;;16.70;;
6937;SDS011;40040;42.706;23.372;2024-03-06T05:44:05;32.57;;;16.17;;
6937;SDS011;40040;42.706;23.372;2024-03-06T05:46:32;34.23;;;16.70;;
6937;SDS011;40040;42.706;23.372;2024-03-06T05:49:00;36.50;;;17.87;;
6937;SDS011;40040;42.706;23.372;2024-03-06T05:51:27;33.40;;;17.00;;
6937;SDS011;40040;42.706;23.372;2024-03-06T05:53:54;35.10;;;16.50;;
6937;SDS011;40040;42.706;23.372;2024-03-06T05:56:21;30.73;;;15.53;;
6937;SDS011;40040;42.706;23.372;2024-03-06T05:58:47;30.47;;;14.33;;
6937;SDS011;40040;42.706;23.372;2024-03-06T06:01:14;23.60;;;11.80;;
6937;SDS011;40040;42.706;23.372;2024-03-06T06:03:45;26.67;;;12.30;;
6937;SDS011;40040;42.706;23.372;2024-03-06T06:06:14;29.37;;;14.57;;
6937;SDS011;40040;42.706;23.372;2024-03-06T06:08:41;30.30;;;15.10;;
6937;SDS011;40040;42.706;23.372;2024-03-06T06:11:09;43.23;;;15.93;;
6937;SDS011;40040;42.706;23.372;2024-03-06T06:13:36;38.23;;;15.93;;
6937;SDS011;40040;42.706;23.372;2024-03-06T06:16:05;44.00;;;16.33;;
6937;SDS011;40040;42.706;23.372;2024-03-06T06:18:33;39.13;;;15.97;;
6937;SDS011;40040;42.706;23.372;2024-03-06T06:21:01;34.43;;;16.17;;
6937;SDS011;40040;42.706;23.372;2024-03-06T06:23:33;31.73;;;15.50;;
6937;SDS011;40040;42.706;23.372;2024-03-06T06:26:00;34.03;;;14.63;;
6937;SDS011;40040;42.706;23.372;2024-03-06T06:28:27;27.70;;;13.90;;
6937;SDS011;40040;42.706;23.372;2024-03-06T06:30:54;26.27;;;12.60;;
6937;SDS011;40040;42.706;23.372;2024-03-06T06:33:21;27.30;;;12.67;;
6937;SDS011;40040;42.706;23.372;2024-03-06T06:35:48;29.50;;;12.23;;
6937;SDS011;40040;42.706;23.372;2024-03-06T06:38:17;23.57;;;13.60;;
6937;SDS011;40040;42.706;23.372;2024-03-06T06:40:46;24.17;;;13.43;;
6937;SDS011;40040;42.706;23.372;2024-03-06T06:43:13;26.80;;;12.73;;
6937;SDS011;40040;42.706;23.372;2024-03-06T06:45:40;28.87;;;12.57;;
6937;SDS011;40040;42.706;23.372;2024-03-06T06:48:08;26.27;;;12.93;;
6937;SDS011;40040;42.706;23.372;2024-03-06T06:50:36;24.57;;;11.47;;
6937;SDS011;40040;42.706;23.372;2024-03-06T06:53:02;23.80;;;12.00;;
6937;SDS011;40040;42.706;23.372;2024-03-06T06:55:30;25.37;;;12.60;;
6937;SDS011;40040;42.706;23.372;2024-03-06T06:57:58;23.83;;;12.17;;
6937;SDS011;40040;42.706;23.372;2024-03-06T07:00:24;24.77;;;12.33;;
6937;SDS011;40040;42.706;23.372;2024-03-06T07:02:51;26.60;;;12.83;;
6937;SDS011;40040;42.706;23.372;2024-03-06T07:05:18;23.50;;;12.23;;
6937;SDS011;40040;42.706;23.372;2024-03-06T07:07:45;24.13;;;12.97;;
6937;SDS011;40040;42.706;23.372;2024-03-06T07:10:12;28.53;;;13.17;;
6937;SDS011;40040;42.706;23.372;2024-03-06T07:12:39;22.87;;;12.93;;
6937;SDS011;40040;42.706;23.372;2024-03-06T07:15:07;25.80;;;13.50;;
6937;SDS011;40040;42.706;23.372;2024-03-06T07:17:34;30.10;;;13.53;;
6937;SDS011;40040;42.706;23.372;2024-03-06T07:20:01;30.20;;;13.33;;
6937;SDS011;40040;42.706;23.372;2024-03-06T07:22:30;25.70;;;13.80;;
6937;SDS011;40040;42.706;23.372;2024-03-06T07:24:57;28.80;;;14.83;;
6937;SDS011;40040;42.706;23.372;2024-03-06T07:27:23;30.00;;;15.23;;
6937;SDS011;40040;42.706;23.372;2024-03-06T07:29:50;29.13;;;14.80;;
6937;SDS011;40040;42.706;23.372;2024-03-06T07:32:18;28.35;;;14.75;;
6937;SDS011;40040;42.706;23.372;2024-03-06T07:34:45;28.77;;;15.33;;
6937;SDS011;40040;42.706;23.372;2024-03-06T07:37:12;30.97;;;15.50;;
6937;SDS011;40040;42.706;23.372;2024-03-06T07:39:39;29.23;;;15.73;;
6937;SDS011;40040;42.706;23.372;2024-03-06T07:42:06;30.08;;;15.73;;
6937;SDS011;40040;42.706;23.372;2024-03-06T07:44:33;29.08;;;16.10;;
6937;SDS011;40040;42.706;23.372;2024-03-06T07:47:00;30.80;;;15.65;;
6937;SDS011;40040;42.706;23.372;2024-03-06T07:49:29;26.93;;;14.13;;
6937;SDS011;40040;42.706;23.372;2024-03-06T07:51:56;25.77;;;14.35;;
6937;SDS011;40040;42.706;23.372;2024-03-06T07:54:24;27.83;;;14.43;;
6937;SDS011;40040;42.706;23.372;2024-03-06T07:56:50;30.15;;;15.07;;
6937;SDS011;40040;42.706;23.372;2024-03-06T07:59:18;31.10;;;14.85;;
6937;SDS011;40040;42.706;23.372;2024-03-06T08:01:45;29.52;;;16.90;;
6937;SDS011;40040;42.706;23.372;2024-03-06T08:04:13;29.73;;;16.40;;
6937;SDS011;40040;42.706;23.372;2024-03-06T08:06:41;30.92;;;16.35;;
6937;SDS011;40040;42.706;23.372;2024-03-06T08:09:08;30.48;;;17.05;;
6937;SDS011;40040;42.706;23.372;2024-03-06T08:11:34;31.30;;;15.50;;
6937;SDS011;40040;42.706;23.372;2024-03-06T08:14:01;32.45;;;16.60;;
6937;SDS011;40040;42.706;23.372;2024-03-06T08:16:28;27.35;;;15.68;;
6937;SDS011;40040;42.706;23.372;2024-03-06T08:18:55;26.95;;;16.23;;
6937;SDS011;40040;42.706;23.372;2024-03-06T08:21:24;28.98;;;15.68;;
6937;SDS011;40040;42.706;23.372;2024-03-06T08:23:52;28.50;;;15.55;;
6937;SDS011;40040;42.706;23.372;2024-03-06T08:26:19;25.88;;;15.20;;
6937;SDS011;40040;42.706;23.372;2024-03-06T08:28:46;29.75;;;15.40;;
6937;SDS011;40040;42.706;23.372;2024-03-06T08:31:12;29.40;;;14.77;;
6937;SDS011;40040;42.706;23.372;2024-03-06T08:33:39;34.90;;;16.05;;
6937;SDS011;40040;42.706;23.372;2024-03-06T08:36:06;23.63;;;14.20;;
6937;SDS011;40040;42.706;23.372;2024-03-06T08:38:33;30.60;;;15.27;;
6937;SDS011;40040;42.706;23.372;2024-03-06T08:41:01;26.05;;;15.20;;
6937;SDS011;40040;42.706;23.372;2024-03-06T08:43:28;29.60;;;15.60;;
6937;SDS011;40040;42.706;23.372;2024-03-06T08:45:55;24.75;;;15.02;;
6937;SDS011;40040;42.706;23.372;2024-03-06T08:48:22;27.73;;;15.73;;
6937;SDS011;40040;42.706;23.372;2024-03-06T08:50:49;31.05;;;14.73;;
6937;SDS011;40040;42.706;23.372;2024-03-06T08:53:16;25.88;;;14.90;;
6937;SDS011;40040;42.706;23.372;2024-03-06T08:55:43;31.20;;;15.52;;
6937;SDS011;40040;42.706;23.372;2024-03-06T08:58:11;22.67;;;14.15;;
6937;SDS011;40040;42.706;23.372;2024-03-06T09:00:41;27.38;;;15.65;;
6937;SDS011;40040;42.706;23.372;2024-03-06T09:03:07;28.25;;;15.95;;
6937;SDS011;40040;42.706;23.372;2024-03-06T09:05:34;27.05;;;15.95;;
6937;SDS011;40040;42.706;23.372;2024-03-06T09:08:01;25.92;;;16.08;;
6937;SDS011;40040;42.706;23.372;2024-03-06T09:10:28;25.85;;;14.27;;
6937;SDS011;40040;42.706;23.372;2024-03-06T09:12:54;22.52;;;13.90;;
6937;SDS011;40040;42.706;23.372;2024-03-06T09:15:23;25.25;;;14.15;;
6937;SDS011;40040;42.706;23.372;2024-03-06T09:17:50;24.30;;;15.18;;
6937;SDS011;40040;42.706;23.372;2024-03-06T09:20:17;25.48;;;14.50;;
6937;SDS011;40040;42.706;23.372;2024-03-06T09:22:44;22.65;;;13.98;;
6937;SDS011;40040;42.706;23.372;2024-03-06T09:25:11;25.27;;;13.52;;
6937;SDS011;40040;42.706;23.372;2024-03-06T09:27:39;22.77;;;13.52;;
6937;SDS011;40040;42.706;23.372;2024-03-06T09:30:07;23.75;;;13.32;;
6937;SDS011;40040;42.706;23.372;2024-03-06T09:32:37;17.27;;;12.00;;
6937;SDS011;40040;42.706;23.372;2024-03-06T09:35:05;22.38;;;13.10;;
6937;SDS011;40040;42.706;23.372;2024-03-06T09:37:33;36.55;;;14.73;;
6937;SDS011;40040;42.706;23.372;2024-03-06T09:39:59;25.40;;;14.25;;
6937;SDS011;40040;42.706;23.372;2024-03-06T09:42:26;26.45;;;15.05;;
6937;SDS011;40040;42.706;23.372;2024-03-06T09:44:53;24.50;;;14.77;;
6937;SDS011;40040;42.706;23.372;2024-03-06T09:47:21;26.83;;;16.13;;
6937;SDS011;40040;42.706;23.372;2024-03-06T09:49:51;24.95;;;15.38;;
6937;SDS011;40040;42.706;23.372;2024-03-06T09:52:19;24.10;;;15.30;;
6937;SDS011;40040;42.706;23.372;2024-03-06T09:54:47;19.80;;;11.27;;
6937;SDS011;40040;42.706;23.372;2024-03-06T09:57:14;16.75;;;10.75;;
6937;SDS011;40040;42.706;23.372;2024-03-06T09:59:41;14.93;;;10.75;;
6937;SDS011;40040;42.706;23.372;2024-03-06T10:02:13;16.83;;;11.05;;
6937;SDS011;40040;42.706;23.372;2024-03-06T10:04:56;17.70;;;10.02;;
6937;SDS011;40040;42.706;23.372;2024-03-06T10:07:23;11.57;;;8.38;;
6937;SDS011;40040;42.706;23.372;2024-03-06T10:09:52;19.17;;;11.63;;
6937;SDS011;40040;42.706;23.372;2024-03-06T10:12:19;18.75;;;12.27;;
6937;SDS011;40040;42.706;23.372;2024-03-06T10:14:50;17.80;;;11.70;;
6937;SDS011;40040;42.706;23.372;2024-03-06T10:17:19;15.10;;;9.65;;
6937;SDS011;40040;42.706;23.372;2024-03-06T10:19:48;14.55;;;9.75;;
6937;SDS011;40040;42.706;23.372;2024-03-06T10:22:18;13.95;;;9.48;;
6937;SDS011;40040;42.706;23.372;2024-03-06T10:24:45;14.30;;;9.52;;
6937;SDS011;40040;42.706;23.372;2024-03-06T10:27:14;12.00;;;8.82;;
6937;SDS011;40040;42.706;23.372;2024-03-06T10:29:42;15.27;;;9.70;;
6937;SDS011;40040;42.706;23.372;2024-03-06T10:32:09;14.95;;;9.70;;
6937;SDS011;40040;42.706;23.372;2024-03-06T10:34:36;13.88;;;9.45;;
6937;SDS011;40040;42.706;23.372;2024-03-06T10:37:03;16.65;;;8.80;;
6937;SDS011;40040;42.706;23.372;2024-03-06T10:39:33;13.15;;;9.32;;
6937;SDS011;40040;42.706;23.372;2024-03-06T10:42:02;13.20;;;9.10;;
6937;SDS011;40040;42.706;23.372;2024-03-06T10:44:31;15.65;;;8.88;;
6937;SDS011;40040;42.706;23.372;2024-03-06T10:47:00;11.57;;;8.45;;
6937;SDS011;40040;42.706;23.372;2024-03-06T10:49:29;12.63;;;9.48;;
6937;SDS011;40040;42.706;23.372;2024-03-06T10:51:57;12.48;;;9.45;;
6937;SDS011;40040;42.706;23.372;2024-03-06T10:54:26;13.95;;;9.23;;
6937;SDS011;40040;42.706;23.372;2024-03-06T10:56:55;9.68;;;7.95;;
6937;SDS011;40040;42.706;23.372;2024-03-06T10:59:24;10.07;;;8.05;;
6937;SDS011;40040;42.706;23.372;2024-03-06T11:01:54;12.23;;;7.95;;
6937;SDS011;40040;42.706;23.372;2024-03-06T11:04:22;12.50;;;8.32;;
6937;SDS011;40040;42.706;23.372;2024-03-06T11:06:53;10.70;;;8.43;;
6937;SDS011;40040;42.706;23.372;2024-03-06T11:09:20;11.55;;;8.43;;
6937;SDS011;40040;42.706;23.372;2024-03-06T11:11:48;9.02;;;8.10;;
6937;SDS011;40040;42.706;23.372;2024-03-06T11:14:18;12.52;;;8.65;;
6937;SDS011;40040;42.706;23.372;2024-03-06T11:16:57;12.70;;;8.48;;
6937;SDS011;40040;42.706;23.372;2024-03-06T11:19:25;12.90;;;8.82;;
6937;SDS011;40040;42.706;23.372;2024-03-06T11:21:53;16.33;;;10.25;;
6937;SDS011;40040;42.706;23.372;2024-03-06T11:24:20;12.45;;;9.30;;
6937;SDS011;40040;42.706;23.372;2024-03-06T11:26:57;9.63;;;8.05;;
6937;SDS011;40040;42.706;23.372;2024-03-06T11:29:28;10.00;;;7.45;;
6937;SDS011;40040;42.706;23.372;2024-03-06T11:32:03;15.20;;;8.50;;
6937;SDS011;40040;42.706;23.372;2024-03-06T11:34:33;11.63;;;8.02;;
6937;SDS011;40040;42.706;23.372;2024-03-06T11:37:03;10.00;;;7.93;;
6937;SDS011;40040;42.706;23.372;2024-03-06T11:39:35;10.85;;;8.45;;
6937;SDS011;40040;42.706;23.372;2024-03-06T11:42:03;11.45;;;8.80;;
6937;SDS011;40040;42.706;23.372;2024-03-06T11:44:34;14.93;;;8.57;;
6937;SDS011;40040;42.706;23.372;2024-03-06T11:47:02;15.90;;;9.43;;
6937;SDS011;40040;42.706;23.372;2024-03-06T11:49:31;11.68;;;8.30;;
6937;SDS011;40040;42.706;23.372;2024-03-06T11:52:00;11.88;;;8.82;;
6937;SDS011;40040;42.706;23.372;2024-03-06T11:54:29;11.63;;;9.15;;
6937;SDS011;40040;42.706;23.372;2024-03-06T11:56:56;9.15;;;7.60;;
6937;SDS011;40040;42.706;23.372;2024-03-06T11:59:23;11.95;;;7.85;;
6937;SDS011;40040;42.706;23.372;2024-03-06T12:01:52;11.60;;;9.15;;
6937;SDS011;40040;42.706;23.372;2024-03-06T12:04:20;12.90;;;9.25;;
6937;SDS011;40040;42.706;23.372;2024-03-06T12:06:48;13.32;;;10.15;;
6937;SDS011;40040;42.706;23.372;2024-03-06T12:09:15;13.63;;;9.27;;
6937;SDS011;40040;42.706;23.372;2024-03-06T12:11:42;17.30;;;10.52;;
6937;SDS011;40040;42.706;23.372;2024-03-06T12:14:12;15.15;;;10.00;;
6937;SDS011;40040;42.706;23.372;2024-03-06T12:16:41;14.88;;;8.50;;
6937;SDS011;40040;42.706;23.372;2024-03-06T12:19:10;9.55;;;8.15;;
6937;SDS011;40040;42.706;23.372;2024-03-06T12:21:38;12.60;;;8.13;;
6937;SDS011;40040;42.706;23.372;2024-03-06T12:24:06;11.70;;;8.18;;
6937;SDS011;40040;42.706;23.372;2024-03-06T12:26:33;12.80;;;8.18;;
6937;SDS011;40040;42.706;23.372;2024-03-06T12:29:04;9.20;;;7.07;;
6937;SDS011;40040;42.706;23.372;2024-03-06T12:31:32;12.60;;;7.10;;
6937;SDS011;40040;42.706;23.372;2024-03-06T12:33:59;10.85;;;6.47;;
6937;SDS011;40040;42.706;23.372;2024-03-06T12:36:29;7.03;;;5.93;;
6937;SDS011;40040;42.706;23.372;2024-03-06T12:38:56;9.02;;;6.25;;
6937;SDS011;40040;42.706;23.372;2024-03-06T12:41:25;7.00;;;6.15;;
6937;SDS011;40040;42.706;23.372;2024-03-06T12:43:53;9.23;;;6.97;;
6937;SDS011;40040;42.706;23.372;2024-03-06T12:46:21;8.25;;;5.38;;
6937;SDS011;40040;42.706;23.372;2024-03-06T12:48:48;9.88;;;6.05;;
6937;SDS011;40040;42.706;23.372;2024-03-06T12:51:14;7.30;;;5.43;;
6937;SDS011;40040;42.706;23.372;2024-03-06T12:53:43;5.40;;;4.97;;
6937;SDS011;40040;42.706;23.372;2024-03-06T12:56:10;7.57;;;5.90;;
6937;SDS011;40040;42.706;23.372;2024-03-06T12:58:36;11.48;;;6.00;;
6937;SDS011;40040;42.706;23.372;2024-03-06T13:01:03;7.78;;;5.55;;
6937;SDS011;40040;42.706;23.372;2024-03-06T13:03:31;7.28;;;5.47;;
6937;SDS011;40040;42.706;23.372;2024-03-06T13:05:57;7.38;;;5.43;;
6937;SDS011;40040;42.706;23.372;2024-03-06T13:08:24;7.88;;;5.60;;
6937;SDS011;40040;42.706;23.372;2024-03-06T13:10:52;9.77;;;5.30;;
6937;SDS011;40040;42.706;23.372;2024-03-06T13:13:19;5.30;;;4.25;;
6937;SDS011;40040;42.706;23.372;2024-03-06T13:15:46;4.85;;;4.30;;
6937;SDS011;40040;42.706;23.372;2024-03-06T13:18:13;5.07;;;4.57;;
6937;SDS011;40040;42.706;23.372;2024-03-06T13:20:40;5.05;;;4.20;;
6937;SDS011;40040;42.706;23.372;2024-03-06T13:23:07;6.45;;;4.13;;
6937;SDS011;40040;42.706;23.372;2024-03-06T13:25:34;5.00;;;4.30;;
6937;SDS011;40040;42.706;23.372;2024-03-06T13:28:03;6.18;;;4.68;;
6937;SDS011;40040;42.706;23.372;2024-03-06T13:30:30;6.03;;;4.40;;
6937;SDS011;40040;42.706;23.372;2024-03-06T13:32:57;10.07;;;4.53;;
6937;SDS011;40040;42.706;23.372;2024-03-06T13:35:24;4.85;;;4.38;;
6937;SDS011;40040;42.706;23.372;2024-03-06T13:37:51;6.95;;;4.43;;
6937;SDS011;40040;42.706;23.372;2024-03-06T13:40:19;7.55;;;4.93;;
6937;SDS011;40040;42.706;23.372;2024-03-06T13:42:45;6.63;;;4.50;;
6937;SDS011;40040;42.706;23.372;2024-03-06T13:45:14;6.85;;;4.82;;
6937;SDS011;40040;42.706;23.372;2024-03-06T13:47:41;7.07;;;4.50;;
6937;SDS011;40040;42.706;23.372;2024-03-06T13:50:09;8.13;;;6.90;;
6937;SDS011;40040;42.706;23.372;2024-03-06T13:52:36;6.03;;;4.85;;
6937;SDS011;40040;42.706;23.372;2024-03-06T13:55:04;6.25;;;5.13;;
6937;SDS011;40040;42.706;23.372;2024-03-06T13:57:32;6.35;;;5.53;;
6937;SDS011;40040;42.706;23.372;2024-03-06T13:59:59;6.65;;;5.15;;
6937;SDS011;40040;42.706;23.372;2024-03-06T14:02:28;5.70;;;5.10;;
6937;SDS011;40040;42.706;23.372;2024-03-06T14:04:55;5.72;;;5.00;;
6937;SDS011;40040;42.706;23.372;2024-03-06T14:07:22;6.72;;;5.22;;
6937;SDS011;40040;42.706;23.372;2024-03-06T14:09:50;6.65;;;4.70;;
6937;SDS011;40040;42.706;23.372;2024-03-06T14:12:18;6.20;;;4.72;;
6937;SDS011;40040;42.706;23.372;2024-03-06T14:14:44;4.93;;;4.53;;
6937;SDS011;40040;42.706;23.372;2024-03-06T14:17:11;5.47;;;4.50;;
6937;SDS011;40040;42.706;23.372;2024-03-06T14:19:39;5.20;;;4.68;;
6937;SDS011;40040;42.706;23.372;2024-03-06T14:22:06;7.20;;;4.80;;
6937;SDS011;40040;42.706;23.372;2024-03-06T14:24:33;6.00;;;4.40;;
6937;SDS011;40040;42.706;23.372;2024-03-06T14:27:00;5.75;;;4.47;;
6937;SDS011;40040;42.706;23.372;2024-03-06T14:29:28;5.30;;;4.70;;